sensor_id;sensor_type;location;lat;lon;timestamp;P1;durP1;ratioP1;P2;durP2;ratioP2
16416;SDS011;8317;52.186;5.688;2023-02-02T00:01:46;22.17;;;5.32;;
16416;SDS011;8317;52.186;5.688;2023-02-02T00:04:14;30.33;;;5.35;;
16416;SDS011;8317;52.186;5.688;2023-02-02T00:06:42;28.40;;;5.22;;
16416;SDS011;8317;52.186;5.688;2023-02-02T00:09:11;23.20;;;4.60;;
16416;SDS011;8317;52.186;5.688;2023-02-02T00:11:39;27.38;;;5.20;;
16416;SDS011;8317;52.186;5.688;2023-02-02T00:14:07;23.05;;;4.75;;
16416;SDS011;8317;52.186;5.688;2023-02-02T00:16:36;23.02;;;4.70;;
16416;SDS011;8317;52.186;5.688;2023-02-02T00:19:08;24.83;;;4.85;;
16416;SDS011;8317;52.186;5.688;2023-02-02T00:21:36;24.17;;;4.50;;
16416;SDS011;8317;52.186;5.688;2023-02-02T00:24:03;27.98;;;4.68;;
16416;SDS011;8317;52.186;5.688;2023-02-02T00:26:31;26.67;;;5.32;;
16416;SDS011;8317;52.186;5.688;2023-02-02T00:28:57;30.33;;;5.60;;
16416;SDS011;8317;52.186;5.688;2023-02-02T00:31:26;28.88;;;4.82;;
16416;SDS011;8317;52.186;5.688;2023-02-02T00:33:53;21.42;;;3.88;;
16416;SDS011;8317;52.186;5.688;2023-02-02T00:36:20;25.42;;;5.10;;
16416;SDS011;8317;52.186;5.688;2023-02-02T00:38:48;19.67;;;4.80;;
16416;SDS011;8317;52.186;5.688;2023-02-02T00:41:15;21.17;;;3.78;;
16416;SDS011;8317;52.186;5.688;2023-02-02T00:43:42;20.85;;;4.45;;
16416;SDS011;8317;52.186;5.688;2023-02-02T00:46:09;20.25;;;3.83;;
16416;SDS011;8317;52.186;5.688;2023-02-02T00:48:40;22.15;;;4.45;;
16416;SDS011;8317;52.186;5.688;2023-02-02T00:51:06;20.23;;;4.53;;
16416;SDS011;8317;52.186;5.688;2023-02-02T00:53:33;17.20;;;3.70;;
16416;SDS011;8317;52.186;5.688;2023-02-02T00:56:00;15.48;;;4.25;;
16416;SDS011;8317;52.186;5.688;2023-02-02T00:58:27;22.65;;;4.13;;
16416;SDS011;8317;52.186;5.688;2023-02-02T01:00:54;17.92;;;3.47;;
16416;SDS011;8317;52.186;5.688;2023-02-02T01:03:21;18.50;;;3.83;;
16416;SDS011;8317;52.186;5.688;2023-02-02T01:05:49;22.02;;;3.92;;
16416;SDS011;8317;52.186;5.688;2023-02-02T01:08:16;16.40;;;3.95;;
16416;SDS011;8317;52.186;5.688;2023-02-02T01:10:43;25.02;;;3.85;;
16416;SDS011;8317;52.186;5.688;2023-02-02T01:13:10;22.75;;;4.68;;
16416;SDS011;8317;52.186;5.688;2023-02-02T01:15:37;18.80;;;3.72;;
16416;SDS011;8317;52.186;5.688;2023-02-02T01:18:04;18.15;;;3.70;;
16416;SDS011;8317;52.186;5.688;2023-02-02T01:20:31;21.77;;;3.83;;
16416;SDS011;8317;52.186;5.688;2023-02-02T01:23:00;26.73;;;4.32;;
16416;SDS011;8317;52.186;5.688;2023-02-02T01:25:27;20.17;;;4.00;;
16416;SDS011;8317;52.186;5.688;2023-02-02T01:27:54;15.60;;;3.30;;
16416;SDS011;8317;52.186;5.688;2023-02-02T01:30:21;15.93;;;3.65;;
16416;SDS011;8317;52.186;5.688;2023-02-02T01:32:48;13.15;;;2.80;;
16416;SDS011;8317;52.186;5.688;2023-02-02T01:35:15;19.58;;;4.05;;
16416;SDS011;8317;52.186;5.688;2023-02-02T01:37:42;8.90;;;2.80;;
16416;SDS011;8317;52.186;5.688;2023-02-02T01:40:11;12.45;;;2.95;;
16416;SDS011;8317;52.186;5.688;2023-02-02T01:42:38;15.07;;;2.50;;
16416;SDS011;8317;52.186;5.688;2023-02-02T01:47:51;9.90;;;2.42;;
16416;SDS011;8317;52.186;5.688;2023-02-02T01:50:25;11.75;;;2.75;;
16416;SDS011;8317;52.186;5.688;2023-02-02T01:52:55;12.00;;;2.50;;
16416;SDS011;8317;52.186;5.688;2023-02-02T01:55:26;9.27;;;2.38;;
16416;SDS011;8317;52.186;5.688;2023-02-02T01:57:56;9.48;;;2.22;;
16416;SDS011;8317;52.186;5.688;2023-02-02T02:00:25;11.70;;;2.47;;
16416;SDS011;8317;52.186;5.688;2023-02-02T02:02:53;8.20;;;2.20;;
16416;SDS011;8317;52.186;5.688;2023-02-02T02:05:28;11.35;;;2.35;;
16416;SDS011;8317;52.186;5.688;2023-02-02T02:07:59;9.43;;;2.10;;
16416;SDS011;8317;52.186;5.688;2023-02-02T02:10:34;3.28;;;2.00;;
16416;SDS011;8317;52.186;5.688;2023-02-02T02:13:01;7.45;;;1.90;;
16416;SDS011;8317;52.186;5.688;2023-02-02T02:15:30;5.75;;;1.80;;
16416;SDS011;8317;52.186;5.688;2023-02-02T02:18:25;8.00;;;1.50;;
16416;SDS011;8317;52.186;5.688;2023-02-02T02:24:15;8.32;;;2.80;;
16416;SDS011;8317;52.186;5.688;2023-02-02T02:30:30;7.32;;;1.70;;
16416;SDS011;8317;52.186;5.688;2023-02-02T02:33:07;4.55;;;1.70;;
16416;SDS011;8317;52.186;5.688;2023-02-02T02:35:41;8.10;;;2.20;;
16416;SDS011;8317;52.186;5.688;2023-02-02T02:38:15;6.28;;;1.90;;
16416;SDS011;8317;52.186;5.688;2023-02-02T02:40:50;6.85;;;3.03;;
16416;SDS011;8317;52.186;5.688;2023-02-02T02:43:20;5.78;;;1.75;;
16416;SDS011;8317;52.186;5.688;2023-02-02T02:45:50;6.70;;;2.40;;
16416;SDS011;8317;52.186;5.688;2023-02-02T02:48:19;11.07;;;3.92;;
16416;SDS011;8317;52.186;5.688;2023-02-02T02:50:46;10.40;;;2.80;;
16416;SDS011;8317;52.186;5.688;2023-02-02T02:53:13;6.85;;;2.83;;
16416;SDS011;8317;52.186;5.688;2023-02-02T02:55:45;9.07;;;3.05;;
16416;SDS011;8317;52.186;5.688;2023-02-02T02:58:15;11.52;;;3.78;;
16416;SDS011;8317;52.186;5.688;2023-02-02T03:00:53;10.65;;;3.85;;
16416;SDS011;8317;52.186;5.688;2023-02-02T03:03:31;16.67;;;4.65;;
16416;SDS011;8317;52.186;5.688;2023-02-02T03:06:09;11.65;;;4.53;;
16416;SDS011;8317;52.186;5.688;2023-02-02T03:08:43;11.70;;;4.85;;
16416;SDS011;8317;52.186;5.688;2023-02-02T03:11:14;19.15;;;5.93;;
16416;SDS011;8317;52.186;5.688;2023-02-02T03:13:42;16.83;;;5.53;;
16416;SDS011;8317;52.186;5.688;2023-02-02T03:16:10;20.83;;;5.30;;
16416;SDS011;8317;52.186;5.688;2023-02-02T03:18:38;17.40;;;5.85;;
16416;SDS011;8317;52.186;5.688;2023-02-02T03:21:05;22.55;;;5.57;;
16416;SDS011;8317;52.186;5.688;2023-02-02T03:23:32;19.35;;;6.18;;
16416;SDS011;8317;52.186;5.688;2023-02-02T03:25:59;23.70;;;6.45;;
16416;SDS011;8317;52.186;5.688;2023-02-02T03:28:26;22.45;;;6.63;;
16416;SDS011;8317;52.186;5.688;2023-02-02T03:30:54;21.23;;;5.05;;
16416;SDS011;8317;52.186;5.688;2023-02-02T03:33:23;19.73;;;5.00;;
16416;SDS011;8317;52.186;5.688;2023-02-02T03:35:52;23.35;;;6.35;;
16416;SDS011;8317;52.186;5.688;2023-02-02T03:38:19;21.92;;;5.28;;
16416;SDS011;8317;52.186;5.688;2023-02-02T03:40:46;18.02;;;5.07;;
16416;SDS011;8317;52.186;5.688;2023-02-02T03:43:12;26.55;;;5.22;;
16416;SDS011;8317;52.186;5.688;2023-02-02T03:45:45;23.98;;;4.78;;
16416;SDS011;8317;52.186;5.688;2023-02-02T03:48:12;25.35;;;5.10;;
16416;SDS011;8317;52.186;5.688;2023-02-02T03:50:39;23.50;;;4.82;;
16416;SDS011;8317;52.186;5.688;2023-02-02T03:53:07;25.00;;;4.85;;
16416;SDS011;8317;52.186;5.688;2023-02-02T03:55:34;21.52;;;5.28;;
16416;SDS011;8317;52.186;5.688;2023-02-02T03:58:03;31.00;;;5.45;;
16416;SDS011;8317;52.186;5.688;2023-02-02T04:00:30;23.60;;;5.38;;
16416;SDS011;8317;52.186;5.688;2023-02-02T04:02:57;28.30;;;4.80;;
16416;SDS011;8317;52.186;5.688;2023-02-02T04:05:24;22.45;;;5.25;;
16416;SDS011;8317;52.186;5.688;2023-02-02T04:07:51;18.80;;;5.10;;
16416;SDS011;8317;52.186;5.688;2023-02-02T04:10:20;27.05;;;5.40;;
16416;SDS011;8317;52.186;5.688;2023-02-02T04:12:47;16.25;;;4.38;;
16416;SDS011;8317;52.186;5.688;2023-02-02T04:15:15;34.35;;;5.40;;
16416;SDS011;8317;52.186;5.688;2023-02-02T04:17:42;28.40;;;5.22;;
16416;SDS011;8317;52.186;5.688;2023-02-02T04:20:09;18.17;;;5.78;;
16416;SDS011;8317;52.186;5.688;2023-02-02T04:22:37;27.58;;;5.20;;
16416;SDS011;8317;52.186;5.688;2023-02-02T04:25:04;20.70;;;4.72;;
16416;SDS011;8317;52.186;5.688;2023-02-02T04:27:33;23.10;;;5.45;;
16416;SDS011;8317;52.186;5.688;2023-02-02T04:30:00;19.88;;;5.00;;
16416;SDS011;8317;52.186;5.688;2023-02-02T04:32:27;26.83;;;5.60;;
16416;SDS011;8317;52.186;5.688;2023-02-02T04:34:54;27.30;;;4.90;;
16416;SDS011;8317;52.186;5.688;2023-02-02T04:37:21;22.63;;;4.65;;
16416;SDS011;8317;52.186;5.688;2023-02-02T04:39:48;15.95;;;4.35;;
16416;SDS011;8317;52.186;5.688;2023-02-02T04:42:15;15.95;;;4.82;;
16416;SDS011;8317;52.186;5.688;2023-02-02T04:44:43;20.13;;;4.28;;
16416;SDS011;8317;52.186;5.688;2023-02-02T04:47:10;31.25;;;5.00;;
16416;SDS011;8317;52.186;5.688;2023-02-02T04:49:37;21.55;;;5.15;;
16416;SDS011;8317;52.186;5.688;2023-02-02T04:52:04;27.75;;;5.07;;
16416;SDS011;8317;52.186;5.688;2023-02-02T04:54:31;24.10;;;4.60;;
16416;SDS011;8317;52.186;5.688;2023-02-02T04:56:58;27.17;;;4.82;;
16416;SDS011;8317;52.186;5.688;2023-02-02T04:59:26;25.52;;;5.35;;
16416;SDS011;8317;52.186;5.688;2023-02-02T05:01:55;30.00;;;4.72;;
16416;SDS011;8317;52.186;5.688;2023-02-02T05:04:24;16.30;;;3.90;;
16416;SDS011;8317;52.186;5.688;2023-02-02T05:06:51;21.70;;;4.55;;
16416;SDS011;8317;52.186;5.688;2023-02-02T05:09:18;22.35;;;4.10;;
16416;SDS011;8317;52.186;5.688;2023-02-02T05:11:45;22.40;;;4.43;;
16416;SDS011;8317;52.186;5.688;2023-02-02T05:14:12;26.88;;;5.78;;
16416;SDS011;8317;52.186;5.688;2023-02-02T05:16:42;16.83;;;4.47;;
16416;SDS011;8317;52.186;5.688;2023-02-02T05:19:11;25.45;;;4.78;;
16416;SDS011;8317;52.186;5.688;2023-02-02T05:21:40;25.65;;;4.90;;
16416;SDS011;8317;52.186;5.688;2023-02-02T05:24:08;24.25;;;5.25;;
16416;SDS011;8317;52.186;5.688;2023-02-02T05:26:35;22.75;;;4.60;;
16416;SDS011;8317;52.186;5.688;2023-02-02T05:29:03;19.25;;;4.63;;
16416;SDS011;8317;52.186;5.688;2023-02-02T05:31:30;24.88;;;4.50;;
16416;SDS011;8317;52.186;5.688;2023-02-02T05:33:58;21.33;;;4.78;;
16416;SDS011;8317;52.186;5.688;2023-02-02T05:36:26;21.65;;;4.88;;
16416;SDS011;8317;52.186;5.688;2023-02-02T05:38:53;26.88;;;5.18;;
16416;SDS011;8317;52.186;5.688;2023-02-02T05:41:20;21.65;;;5.00;;
16416;SDS011;8317;52.186;5.688;2023-02-02T05:43:47;34.65;;;6.60;;
16416;SDS011;8317;52.186;5.688;2023-02-02T05:46:14;21.45;;;5.35;;
16416;SDS011;8317;52.186;5.688;2023-02-02T05:48:41;28.75;;;5.90;;
16416;SDS011;8317;52.186;5.688;2023-02-02T05:51:09;21.42;;;5.95;;
16416;SDS011;8317;52.186;5.688;2023-02-02T05:53:41;19.55;;;5.28;;
16416;SDS011;8317;52.186;5.688;2023-02-02T05:56:09;21.00;;;5.65;;
16416;SDS011;8317;52.186;5.688;2023-02-02T05:58:36;24.08;;;5.78;;
16416;SDS011;8317;52.186;5.688;2023-02-02T06:01:03;28.23;;;6.03;;
16416;SDS011;8317;52.186;5.688;2023-02-02T06:03:30;22.35;;;5.38;;
16416;SDS011;8317;52.186;5.688;2023-02-02T06:05:57;28.88;;;5.82;;
16416;SDS011;8317;52.186;5.688;2023-02-02T06:08:24;22.52;;;5.70;;
16416;SDS011;8317;52.186;5.688;2023-02-02T06:10:52;22.20;;;5.78;;
16416;SDS011;8317;52.186;5.688;2023-02-02T06:13:19;29.17;;;5.70;;
16416;SDS011;8317;52.186;5.688;2023-02-02T06:15:46;20.52;;;5.55;;
16416;SDS011;8317;52.186;5.688;2023-02-02T06:18:13;26.50;;;6.50;;
16416;SDS011;8317;52.186;5.688;2023-02-02T06:20:40;18.80;;;6.35;;
16416;SDS011;8317;52.186;5.688;2023-02-02T06:23:07;27.75;;;6.20;;
16416;SDS011;8317;52.186;5.688;2023-02-02T06:25:34;22.23;;;5.82;;
16416;SDS011;8317;52.186;5.688;2023-02-02T06:28:02;24.40;;;6.32;;
16416;SDS011;8317;52.186;5.688;2023-02-02T06:30:29;20.02;;;5.47;;
16416;SDS011;8317;52.186;5.688;2023-02-02T06:32:57;15.10;;;5.78;;
16416;SDS011;8317;52.186;5.688;2023-02-02T06:35:25;17.17;;;5.05;;
16416;SDS011;8317;52.186;5.688;2023-02-02T06:37:52;36.90;;;11.23;;
16416;SDS011;8317;52.186;5.688;2023-02-02T06:40:19;27.13;;;6.40;;
16416;SDS011;8317;52.186;5.688;2023-02-02T06:42:46;28.80;;;7.88;;
16416;SDS011;8317;52.186;5.688;2023-02-02T06:45:14;25.92;;;6.60;;
16416;SDS011;8317;52.186;5.688;2023-02-02T06:47:41;35.53;;;18.88;;
16416;SDS011;8317;52.186;5.688;2023-02-02T06:50:08;24.10;;;8.00;;
16416;SDS011;8317;52.186;5.688;2023-02-02T06:52:36;24.90;;;10.85;;
16416;SDS011;8317;52.186;5.688;2023-02-02T06:55:03;24.52;;;6.38;;
16416;SDS011;8317;52.186;5.688;2023-02-02T06:57:30;31.85;;;8.38;;
16416;SDS011;8317;52.186;5.688;2023-02-02T06:59:57;19.95;;;5.53;;
16416;SDS011;8317;52.186;5.688;2023-02-02T07:02:25;34.10;;;10.40;;
16416;SDS011;8317;52.186;5.688;2023-02-02T07:04:52;25.10;;;11.77;;
16416;SDS011;8317;52.186;5.688;2023-02-02T07:07:19;18.95;;;5.97;;
16416;SDS011;8317;52.186;5.688;2023-02-02T07:09:46;23.00;;;6.10;;
16416;SDS011;8317;52.186;5.688;2023-02-02T07:12:13;23.67;;;6.25;;
16416;SDS011;8317;52.186;5.688;2023-02-02T07:14:40;26.65;;;6.28;;
16416;SDS011;8317;52.186;5.688;2023-02-02T07:17:06;19.23;;;6.70;;
16416;SDS011;8317;52.186;5.688;2023-02-02T07:19:35;16.73;;;5.85;;
16416;SDS011;8317;52.186;5.688;2023-02-02T07:22:02;24.52;;;6.78;;
16416;SDS011;8317;52.186;5.688;2023-02-02T07:24:29;21.80;;;6.38;;
16416;SDS011;8317;52.186;5.688;2023-02-02T07:26:56;20.27;;;7.10;;
16416;SDS011;8317;52.186;5.688;2023-02-02T07:29:23;23.70;;;8.02;;
16416;SDS011;8317;52.186;5.688;2023-02-02T07:31:50;24.65;;;8.68;;
16416;SDS011;8317;52.186;5.688;2023-02-02T07:34:17;23.95;;;7.38;;
16416;SDS011;8317;52.186;5.688;2023-02-02T07:36:45;31.10;;;9.02;;
16416;SDS011;8317;52.186;5.688;2023-02-02T07:39:13;29.73;;;7.68;;
16416;SDS011;8317;52.186;5.688;2023-02-02T07:41:40;29.30;;;8.00;;
16416;SDS011;8317;52.186;5.688;2023-02-02T07:44:09;32.33;;;8.00;;
16416;SDS011;8317;52.186;5.688;2023-02-02T07:46:40;30.10;;;8.55;;
16416;SDS011;8317;52.186;5.688;2023-02-02T07:49:09;24.17;;;8.00;;
16416;SDS011;8317;52.186;5.688;2023-02-02T07:51:37;21.77;;;7.72;;
16416;SDS011;8317;52.186;5.688;2023-02-02T07:54:06;26.30;;;7.65;;
16416;SDS011;8317;52.186;5.688;2023-02-02T07:56:33;23.00;;;6.93;;
16416;SDS011;8317;52.186;5.688;2023-02-02T07:59:00;37.30;;;9.80;;
16416;SDS011;8317;52.186;5.688;2023-02-02T08:01:27;21.77;;;8.23;;
16416;SDS011;8317;52.186;5.688;2023-02-02T08:03:55;33.70;;;11.15;;
16416;SDS011;8317;52.186;5.688;2023-02-02T08:06:25;22.83;;;7.88;;
16416;SDS011;8317;52.186;5.688;2023-02-02T08:08:53;26.00;;;7.30;;
16416;SDS011;8317;52.186;5.688;2023-02-02T08:11:23;30.63;;;7.90;;
16416;SDS011;8317;52.186;5.688;2023-02-02T08:13:52;25.30;;;8.25;;
16416;SDS011;8317;52.186;5.688;2023-02-02T08:16:23;29.50;;;7.63;;
16416;SDS011;8317;52.186;5.688;2023-02-02T08:18:51;30.85;;;11.02;;
16416;SDS011;8317;52.186;5.688;2023-02-02T08:21:18;24.60;;;7.03;;
16416;SDS011;8317;52.186;5.688;2023-02-02T08:23:46;29.73;;;7.25;;
16416;SDS011;8317;52.186;5.688;2023-02-02T08:26:14;36.80;;;9.43;;
16416;SDS011;8317;52.186;5.688;2023-02-02T08:28:44;27.90;;;7.78;;
16416;SDS011;8317;52.186;5.688;2023-02-02T08:31:14;25.00;;;6.07;;
16416;SDS011;8317;52.186;5.688;2023-02-02T08:33:43;22.10;;;5.85;;
16416;SDS011;8317;52.186;5.688;2023-02-02T08:36:10;27.42;;;6.82;;
16416;SDS011;8317;52.186;5.688;2023-02-02T08:38:38;29.40;;;6.10;;
16416;SDS011;8317;52.186;5.688;2023-02-02T08:41:05;30.20;;;7.38;;
16416;SDS011;8317;52.186;5.688;2023-02-02T08:43:34;36.75;;;6.57;;
16416;SDS011;8317;52.186;5.688;2023-02-02T08:46:02;30.50;;;8.43;;
16416;SDS011;8317;52.186;5.688;2023-02-02T08:48:30;30.33;;;6.32;;
16416;SDS011;8317;52.186;5.688;2023-02-02T08:50:57;25.85;;;5.50;;
16416;SDS011;8317;52.186;5.688;2023-02-02T08:53:25;16.50;;;6.20;;
16416;SDS011;8317;52.186;5.688;2023-02-02T08:55:59;22.52;;;6.38;;
16416;SDS011;8317;52.186;5.688;2023-02-02T08:58:28;21.50;;;5.00;;
16416;SDS011;8317;52.186;5.688;2023-02-02T09:01:04;25.05;;;5.35;;
16416;SDS011;8317;52.186;5.688;2023-02-02T09:03:31;26.38;;;5.80;;
16416;SDS011;8317;52.186;5.688;2023-02-02T09:06:02;23.65;;;5.03;;
16416;SDS011;8317;52.186;5.688;2023-02-02T09:08:30;30.88;;;6.22;;
16416;SDS011;8317;52.186;5.688;2023-02-02T09:11:01;25.90;;;5.32;;
16416;SDS011;8317;52.186;5.688;2023-02-02T09:13:32;24.33;;;5.43;;
16416;SDS011;8317;52.186;5.688;2023-02-02T09:16:00;13.45;;;4.90;;
16416;SDS011;8317;52.186;5.688;2023-02-02T09:18:29;22.27;;;5.40;;
16416;SDS011;8317;52.186;5.688;2023-02-02T09:20:58;19.70;;;5.25;;
16416;SDS011;8317;52.186;5.688;2023-02-02T09:23:28;26.92;;;6.15;;
16416;SDS011;8317;52.186;5.688;2023-02-02T09:25:56;20.35;;;4.85;;
16416;SDS011;8317;52.186;5.688;2023-02-02T09:28:23;15.82;;;4.88;;
16416;SDS011;8317;52.186;5.688;2023-02-02T09:30:50;18.55;;;4.68;;
16416;SDS011;8317;52.186;5.688;2023-02-02T09:33:17;18.85;;;4.82;;
16416;SDS011;8317;52.186;5.688;2023-02-02T09:35:45;28.00;;;5.68;;
16416;SDS011;8317;52.186;5.688;2023-02-02T09:38:12;24.00;;;5.32;;
16416;SDS011;8317;52.186;5.688;2023-02-02T09:40:39;20.98;;;5.50;;
16416;SDS011;8317;52.186;5.688;2023-02-02T09:43:23;26.52;;;5.30;;
16416;SDS011;8317;52.186;5.688;2023-02-02T09:46:02;29.30;;;4.78;;
16416;SDS011;8317;52.186;5.688;2023-02-02T09:48:39;20.85;;;4.82;;
16416;SDS011;8317;52.186;5.688;2023-02-02T09:51:13;30.13;;;5.10;;
16416;SDS011;8317;52.186;5.688;2023-02-02T09:53:44;21.52;;;4.68;;
16416;SDS011;8317;52.186;5.688;2023-02-02T09:56:17;16.08;;;4.72;;
16416;SDS011;8317;52.186;5.688;2023-02-02T09:58:48;35.53;;;10.80;;
16416;SDS011;8317;52.186;5.688;2023-02-02T10:01:19;79.85;;;25.63;;
16416;SDS011;8317;52.186;5.688;2023-02-02T10:03:52;34.63;;;12.27;;
16416;SDS011;8317;52.186;5.688;2023-02-02T10:06:29;22.15;;;6.57;;
16416;SDS011;8317;52.186;5.688;2023-02-02T10:09:02;23.85;;;6.82;;
16416;SDS011;8317;52.186;5.688;2023-02-02T10:11:39;21.77;;;5.95;;
16416;SDS011;8317;52.186;5.688;2023-02-02T10:14:13;21.27;;;5.82;;
16416;SDS011;8317;52.186;5.688;2023-02-02T10:16:45;19.83;;;5.18;;
16416;SDS011;8317;52.186;5.688;2023-02-02T10:19:14;25.80;;;6.13;;
16416;SDS011;8317;52.186;5.688;2023-02-02T10:21:45;26.40;;;5.85;;
16416;SDS011;8317;52.186;5.688;2023-02-02T10:24:17;24.52;;;7.35;;
16416;SDS011;8317;52.186;5.688;2023-02-02T10:26:47;24.98;;;5.68;;
16416;SDS011;8317;52.186;5.688;2023-02-02T10:29:17;21.23;;;4.53;;
16416;SDS011;8317;52.186;5.688;2023-02-02T10:31:56;21.30;;;6.50;;
16416;SDS011;8317;52.186;5.688;2023-02-02T10:34:38;14.38;;;5.78;;
16416;SDS011;8317;52.186;5.688;2023-02-02T10:37:13;20.20;;;5.60;;
16416;SDS011;8317;52.186;5.688;2023-02-02T10:39:50;19.33;;;5.25;;
16416;SDS011;8317;52.186;5.688;2023-02-02T10:42:43;23.00;;;7.05;;
16416;SDS011;8317;52.186;5.688;2023-02-02T10:45:39;17.65;;;5.80;;
16416;SDS011;8317;52.186;5.688;2023-02-02T10:48:11;24.67;;;7.38;;
16416;SDS011;8317;52.186;5.688;2023-02-02T10:50:41;22.45;;;8.75;;
16416;SDS011;8317;52.186;5.688;2023-02-02T10:53:13;29.00;;;6.25;;
16416;SDS011;8317;52.186;5.688;2023-02-02T10:55:42;28.90;;;7.07;;
16416;SDS011;8317;52.186;5.688;2023-02-02T10:58:17;22.52;;;7.03;;
16416;SDS011;8317;52.186;5.688;2023-02-02T11:00:50;19.95;;;6.03;;
16416;SDS011;8317;52.186;5.688;2023-02-02T11:03:19;21.20;;;6.47;;
16416;SDS011;8317;52.186;5.688;2023-02-02T11:05:49;22.23;;;5.63;;
16416;SDS011;8317;52.186;5.688;2023-02-02T11:08:36;21.58;;;5.53;;
16416;SDS011;8317;52.186;5.688;2023-02-02T11:11:10;25.63;;;6.18;;
16416;SDS011;8317;52.186;5.688;2023-02-02T11:13:43;20.42;;;5.38;;
16416;SDS011;8317;52.186;5.688;2023-02-02T11:16:20;19.95;;;5.45;;
16416;SDS011;8317;52.186;5.688;2023-02-02T11:18:50;13.73;;;4.95;;
16416;SDS011;8317;52.186;5.688;2023-02-02T11:21:18;22.65;;;4.97;;
16416;SDS011;8317;52.186;5.688;2023-02-02T11:23:52;19.48;;;5.80;;
16416;SDS011;8317;52.186;5.688;2023-02-02T11:26:20;19.15;;;5.55;;
16416;SDS011;8317;52.186;5.688;2023-02-02T11:28:49;15.98;;;5.13;;
16416;SDS011;8317;52.186;5.688;2023-02-02T11:31:29;15.70;;;6.10;;
16416;SDS011;8317;52.186;5.688;2023-02-02T11:34:06;19.23;;;5.03;;
16416;SDS011;8317;52.186;5.688;2023-02-02T11:36:34;22.20;;;5.25;;
16416;SDS011;8317;52.186;5.688;2023-02-02T11:39:17;21.20;;;4.97;;
16416;SDS011;8317;52.186;5.688;2023-02-02T11:41:46;23.27;;;5.45;;
16416;SDS011;8317;52.186;5.688;2023-02-02T11:44:16;18.73;;;5.35;;
16416;SDS011;8317;52.186;5.688;2023-02-02T11:46:49;21.80;;;6.20;;
16416;SDS011;8317;52.186;5.688;2023-02-02T11:49:16;24.77;;;5.70;;
16416;SDS011;8317;52.186;5.688;2023-02-02T11:51:54;19.30;;;5.60;;
16416;SDS011;8317;52.186;5.688;2023-02-02T11:54:25;26.90;;;5.57;;
16416;SDS011;8317;52.186;5.688;2023-02-02T11:56:55;20.70;;;5.32;;
16416;SDS011;8317;52.186;5.688;2023-02-02T11:59:28;15.65;;;4.78;;
16416;SDS011;8317;52.186;5.688;2023-02-02T12:05:12;20.35;;;5.00;;
16416;SDS011;8317;52.186;5.688;2023-02-02T12:07:51;20.75;;;4.80;;
16416;SDS011;8317;52.186;5.688;2023-02-02T12:10:22;19.08;;;4.82;;
16416;SDS011;8317;52.186;5.688;2023-02-02T12:12:53;20.10;;;4.63;;
16416;SDS011;8317;52.186;5.688;2023-02-02T12:15:31;15.73;;;4.35;;
16416;SDS011;8317;52.186;5.688;2023-02-02T12:18:09;33.53;;;5.57;;
16416;SDS011;8317;52.186;5.688;2023-02-02T12:20:52;14.25;;;4.43;;
16416;SDS011;8317;52.186;5.688;2023-02-02T12:23:33;16.50;;;4.20;;
16416;SDS011;8317;52.186;5.688;2023-02-02T12:26:21;20.95;;;4.75;;
16416;SDS011;8317;52.186;5.688;2023-02-02T12:28:58;13.10;;;4.38;;
16416;SDS011;8317;52.186;5.688;2023-02-02T12:32:01;22.60;;;4.72;;
16416;SDS011;8317;52.186;5.688;2023-02-02T12:34:42;25.52;;;5.20;;
16416;SDS011;8317;52.186;5.688;2023-02-02T12:37:20;20.17;;;3.80;;
16416;SDS011;8317;52.186;5.688;2023-02-02T12:39:58;15.13;;;3.30;;
16416;SDS011;8317;52.186;5.688;2023-02-02T12:42:42;20.23;;;3.75;;
16416;SDS011;8317;52.186;5.688;2023-02-02T12:45:27;15.18;;;3.88;;
16416;SDS011;8317;52.186;5.688;2023-02-02T12:48:09;21.60;;;4.55;;
16416;SDS011;8317;52.186;5.688;2023-02-02T12:50:52;17.38;;;3.72;;
16416;SDS011;8317;52.186;5.688;2023-02-02T12:53:32;16.88;;;3.22;;
16416;SDS011;8317;52.186;5.688;2023-02-02T12:56:13;14.93;;;3.83;;
16416;SDS011;8317;52.186;5.688;2023-02-02T12:58:51;20.75;;;4.18;;
16416;SDS011;8317;52.186;5.688;2023-02-02T13:01:30;18.20;;;3.72;;
16416;SDS011;8317;52.186;5.688;2023-02-02T13:04:16;12.50;;;3.63;;
16416;SDS011;8317;52.186;5.688;2023-02-02T13:07:14;18.60;;;4.13;;
16416;SDS011;8317;52.186;5.688;2023-02-02T13:09:50;14.05;;;3.53;;
16416;SDS011;8317;52.186;5.688;2023-02-02T13:12:27;15.80;;;3.60;;
16416;SDS011;8317;52.186;5.688;2023-02-02T13:14:56;18.80;;;4.00;;
16416;SDS011;8317;52.186;5.688;2023-02-02T13:17:27;12.85;;;3.60;;
16416;SDS011;8317;52.186;5.688;2023-02-02T13:19:59;17.23;;;3.97;;
16416;SDS011;8317;52.186;5.688;2023-02-02T13:22:31;17.83;;;3.75;;
16416;SDS011;8317;52.186;5.688;2023-02-02T13:25:01;15.98;;;4.70;;
16416;SDS011;8317;52.186;5.688;2023-02-02T13:27:32;15.40;;;3.97;;
16416;SDS011;8317;52.186;5.688;2023-02-02T13:30:02;17.08;;;3.80;;
16416;SDS011;8317;52.186;5.688;2023-02-02T13:32:36;17.55;;;3.58;;
16416;SDS011;8317;52.186;5.688;2023-02-02T13:35:12;21.75;;;4.35;;
16416;SDS011;8317;52.186;5.688;2023-02-02T13:37:43;19.88;;;4.47;;
16416;SDS011;8317;52.186;5.688;2023-02-02T13:40:19;17.13;;;5.13;;
16416;SDS011;8317;52.186;5.688;2023-02-02T13:42:53;12.55;;;4.07;;
16416;SDS011;8317;52.186;5.688;2023-02-02T13:45:41;18.08;;;4.35;;
16416;SDS011;8317;52.186;5.688;2023-02-02T13:48:16;14.50;;;3.80;;
16416;SDS011;8317;52.186;5.688;2023-02-02T13:53:51;17.85;;;4.22;;
16416;SDS011;8317;52.186;5.688;2023-02-02T13:56:35;15.70;;;4.03;;
16416;SDS011;8317;52.186;5.688;2023-02-02T13:59:08;13.55;;;5.10;;
16416;SDS011;8317;52.186;5.688;2023-02-02T14:01:50;12.73;;;3.97;;
16416;SDS011;8317;52.186;5.688;2023-02-02T14:04:20;9.65;;;4.18;;
16416;SDS011;8317;52.186;5.688;2023-02-02T14:06:53;10.55;;;3.78;;
16416;SDS011;8317;52.186;5.688;2023-02-02T14:09:23;15.45;;;4.45;;
16416;SDS011;8317;52.186;5.688;2023-02-02T14:11:54;16.13;;;4.95;;
16416;SDS011;8317;52.186;5.688;2023-02-02T14:14:24;11.48;;;3.90;;
16416;SDS011;8317;52.186;5.688;2023-02-02T14:16:58;17.77;;;4.25;;
16416;SDS011;8317;52.186;5.688;2023-02-02T14:28:13;10.63;;;3.20;;
16416;SDS011;8317;52.186;5.688;2023-02-02T14:31:16;6.70;;;3.03;;
16416;SDS011;8317;52.186;5.688;2023-02-02T14:37:11;8.65;;;3.20;;
16416;SDS011;8317;52.186;5.688;2023-02-02T14:40:10;7.00;;;3.00;;
16416;SDS011;8317;52.186;5.688;2023-02-02T14:42:55;8.95;;;4.57;;
16416;SDS011;8317;52.186;5.688;2023-02-02T14:45:47;9.07;;;3.03;;
16416;SDS011;8317;52.186;5.688;2023-02-02T14:48:35;5.13;;;2.95;;
16416;SDS011;8317;52.186;5.688;2023-02-02T14:51:10;7.82;;;3.05;;
16416;SDS011;8317;52.186;5.688;2023-02-02T14:53:39;7.88;;;4.88;;
16416;SDS011;8317;52.186;5.688;2023-02-02T14:56:14;4.85;;;2.95;;
16416;SDS011;8317;52.186;5.688;2023-02-02T14:58:42;4.13;;;2.50;;
16416;SDS011;8317;52.186;5.688;2023-02-02T15:01:11;3.53;;;2.55;;
16416;SDS011;8317;52.186;5.688;2023-02-02T15:03:50;5.75;;;2.78;;
16416;SDS011;8317;52.186;5.688;2023-02-02T15:06:29;3.67;;;2.50;;
16416;SDS011;8317;52.186;5.688;2023-02-02T15:12:16;4.70;;;2.97;;
16416;SDS011;8317;52.186;5.688;2023-02-02T15:14:46;5.63;;;2.33;;
16416;SDS011;8317;52.186;5.688;2023-02-02T15:17:19;3.30;;;2.45;;
16416;SDS011;8317;52.186;5.688;2023-02-02T15:19:52;6.07;;;3.42;;
16416;SDS011;8317;52.186;5.688;2023-02-02T15:22:26;4.82;;;3.72;;
16416;SDS011;8317;52.186;5.688;2023-02-02T15:24:56;6.60;;;2.50;;
16416;SDS011;8317;52.186;5.688;2023-02-02T15:27:28;3.40;;;2.78;;
16416;SDS011;8317;52.186;5.688;2023-02-02T15:29:57;3.75;;;3.00;;
16416;SDS011;8317;52.186;5.688;2023-02-02T15:32:29;5.45;;;3.22;;
16416;SDS011;8317;52.186;5.688;2023-02-02T15:34:58;4.63;;;3.15;;
16416;SDS011;8317;52.186;5.688;2023-02-02T15:37:30;4.55;;;3.85;;
16416;SDS011;8317;52.186;5.688;2023-02-02T15:40:04;5.53;;;3.85;;
16416;SDS011;8317;52.186;5.688;2023-02-02T15:42:40;5.72;;;4.47;;